Airfield :







YOU CAN JOIN US ON...

 
LOGIN :

Register | Disclaimer

   EN    FR    IT 

 









Legend :    VFR   Marginal VFR   IFR   Intensive IFR   Very Intensive IFR
Visi :
Ceiling :
>= 8 km
>= 3000ft
5 to 8 km
1000 to 3000 ft
1500m to 5 km
500 to 1000 ft
800 to 1500m
200 to 500 ft
< 800m
< 200 ft
Symbols :   Thunderstorms  Fog  Heavy snow  Heavy precipitations  Wind > 20 kt






- Airport Elevation : 603 ft
- IATA code : LEB


KLEB - Lebanon Municipal

CURRENT METAR :
  • 052353Z 00000KT 10SM BKN070 M03/M07 A2992 RMK AO2 SLP146 T10281067 10050 21039 53004

EXPIRED METARs :
  • 052253Z 17004KT 10SM CLR M02/M07 A2991 RMK AO2 SLP142 T10171067
  • 052153Z 00000KT 10SM CLR 02/M06 A2990 RMK AO2 SLP138 T00221061

TAF KLEB
Valid from the 06 at 00:00 until the 07 at 00:00 UTC


052320Z 0600/0624 VRB03KT P6SM BKN070
FM061700 35008KT P6SM BKN050
KZBW FIR / North America



MET'MAP, your aeronautical weather chart ! - Copyright ORBIFLY December 2007 - Disclaimer

ORBIFLY MET'MAP TEAM :

Programming & Development : Alexandra Zaïnal
Original concept : Baudouin d'Aumeries
Technical & hardware support : Manuel Goepfert
Assistance : Marc-Olivier Méhu




SOURCES & CREDITS :

   NOAA